sensor_id;sensor_type;location;lat;lon;timestamp;P1;durP1;ratioP1;P2;durP2;ratioP2
7263;SDS011;3673;52.480;13.348;2024-03-23T00:52:28;19.38;;;4.18;;
7263;SDS011;3673;52.480;13.348;2024-03-23T00:54:55;14.35;;;3.28;;
7263;SDS011;3673;52.480;13.348;2024-03-23T00:57:20;14.73;;;3.47;;
7263;SDS011;3673;52.480;13.348;2024-03-23T00:59:47;13.75;;;2.85;;
7263;SDS011;3673;52.480;13.348;2024-03-23T01:02:13;13.32;;;2.92;;
7263;SDS011;3673;52.480;13.348;2024-03-23T01:04:40;14.95;;;2.85;;
7263;SDS011;3673;52.480;13.348;2024-03-23T01:07:05;14.48;;;2.70;;
7263;SDS011;3673;52.480;13.348;2024-03-23T01:09:33;18.85;;;3.25;;
7263;SDS011;3673;52.480;13.348;2024-03-23T01:11:59;17.45;;;3.33;;
7263;SDS011;3673;52.480;13.348;2024-03-23T01:14:26;11.63;;;3.03;;
7263;SDS011;3673;52.480;13.348;2024-03-23T01:16:52;16.73;;;3.22;;
7263;SDS011;3673;52.480;13.348;2024-03-23T01:19:19;20.42;;;3.13;;
7263;SDS011;3673;52.480;13.348;2024-03-23T01:21:45;14.55;;;2.58;;
7263;SDS011;3673;52.480;13.348;2024-03-23T01:24:11;17.35;;;3.58;;
7263;SDS011;3673;52.480;13.348;2024-03-23T01:26:39;20.15;;;3.58;;
7263;SDS011;3673;52.480;13.348;2024-03-23T01:29:05;11.57;;;2.70;;
7263;SDS011;3673;52.480;13.348;2024-03-23T01:31:31;25.23;;;3.42;;
7263;SDS011;3673;52.480;13.348;2024-03-23T01:33:58;22.33;;;3.33;;
7263;SDS011;3673;52.480;13.348;2024-03-23T01:36:24;13.35;;;2.95;;
7263;SDS011;3673;52.480;13.348;2024-03-23T01:38:50;16.52;;;4.05;;
7263;SDS011;3673;52.480;13.348;2024-03-23T01:43:45;15.95;;;3.70;;
7263;SDS011;3673;52.480;13.348;2024-03-23T01:46:10;10.95;;;3.05;;
7263;SDS011;3673;52.480;13.348;2024-03-23T01:48:37;18.05;;;3.80;;
7263;SDS011;3673;52.480;13.348;2024-03-23T01:51:03;14.10;;;3.80;;
7263;SDS011;3673;52.480;13.348;2024-03-23T01:53:31;14.50;;;3.17;;
7263;SDS011;3673;52.480;13.348;2024-03-23T01:55:56;23.95;;;3.40;;
7263;SDS011;3673;52.480;13.348;2024-03-23T01:58:23;12.88;;;3.17;;
7263;SDS011;3673;52.480;13.348;2024-03-23T02:00:50;20.30;;;4.22;;
7263;SDS011;3673;52.480;13.348;2024-03-23T02:03:23;28.23;;;4.65;;
7263;SDS011;3673;52.480;13.348;2024-03-23T02:05:50;15.55;;;3.88;;
7263;SDS011;3673;52.480;13.348;2024-03-23T02:08:18;21.20;;;5.38;;
7263;SDS011;3673;52.480;13.348;2024-03-23T02:10:46;29.75;;;8.98;;
7263;SDS011;3673;52.480;13.348;2024-03-23T02:13:14;39.42;;;14.73;;
7263;SDS011;3673;52.480;13.348;2024-03-23T02:18:08;17.10;;;4.70;;
7263;SDS011;3673;52.480;13.348;2024-03-23T02:20:34;22.38;;;3.60;;
7263;SDS011;3673;52.480;13.348;2024-03-23T02:23:02;10.95;;;3.28;;
7263;SDS011;3673;52.480;13.348;2024-03-23T02:25:30;20.98;;;4.20;;
7263;SDS011;3673;52.480;13.348;2024-03-23T02:27:57;14.55;;;3.40;;
7263;SDS011;3673;52.480;13.348;2024-03-23T02:30:24;19.45;;;4.18;;
7263;SDS011;3673;52.480;13.348;2024-03-23T02:32:50;13.40;;;4.07;;
7263;SDS011;3673;52.480;13.348;2024-03-23T02:35:16;18.73;;;4.70;;
7263;SDS011;3673;52.480;13.348;2024-03-23T02:37:43;15.52;;;3.85;;
7263;SDS011;3673;52.480;13.348;2024-03-23T02:40:12;14.75;;;3.88;;
7263;SDS011;3673;52.480;13.348;2024-03-23T02:42:39;18.52;;;3.67;;
7263;SDS011;3673;52.480;13.348;2024-03-23T02:45:05;14.07;;;3.28;;
7263;SDS011;3673;52.480;13.348;2024-03-23T02:47:33;11.65;;;3.05;;
7263;SDS011;3673;52.480;13.348;2024-03-23T02:49:59;17.05;;;5.13;;
7263;SDS011;3673;52.480;13.348;2024-03-23T02:52:25;17.35;;;3.33;;
7263;SDS011;3673;52.480;13.348;2024-03-23T02:54:51;22.27;;;4.40;;
7263;SDS011;3673;52.480;13.348;2024-03-23T02:57:19;21.50;;;3.85;;
7263;SDS011;3673;52.480;13.348;2024-03-23T02:59:45;20.08;;;3.30;;
7263;SDS011;3673;52.480;13.348;2024-03-23T03:02:12;17.65;;;4.18;;
7263;SDS011;3673;52.480;13.348;2024-03-23T03:04:39;19.92;;;4.07;;
7263;SDS011;3673;52.480;13.348;2024-03-23T03:07:05;12.60;;;2.35;;
7263;SDS011;3673;52.480;13.348;2024-03-23T03:09:31;19.25;;;3.42;;
7263;SDS011;3673;52.480;13.348;2024-03-23T03:12:00;19.02;;;3.53;;
7263;SDS011;3673;52.480;13.348;2024-03-23T03:14:27;12.32;;;5.07;;
7263;SDS011;3673;52.480;13.348;2024-03-23T03:16:54;19.42;;;4.18;;
7263;SDS011;3673;52.480;13.348;2024-03-23T03:21:47;17.70;;;5.17;;
7263;SDS011;3673;52.480;13.348;2024-03-23T03:24:13;12.00;;;3.35;;
7263;SDS011;3673;52.480;13.348;2024-03-23T03:26:40;18.15;;;3.67;;
7263;SDS011;3673;52.480;13.348;2024-03-23T03:29:06;17.50;;;5.10;;
7263;SDS011;3673;52.480;13.348;2024-03-23T03:31:34;16.95;;;3.47;;
7263;SDS011;3673;52.480;13.348;2024-03-23T03:33:59;17.70;;;3.80;;
7263;SDS011;3673;52.480;13.348;2024-03-23T03:36:27;14.48;;;2.90;;
7263;SDS011;3673;52.480;13.348;2024-03-23T03:38:53;19.35;;;4.63;;
7263;SDS011;3673;52.480;13.348;2024-03-23T03:41:20;12.70;;;3.63;;
7263;SDS011;3673;52.480;13.348;2024-03-23T03:43:45;14.65;;;3.72;;
7263;SDS011;3673;52.480;13.348;2024-03-23T03:46:12;16.02;;;3.78;;
7263;SDS011;3673;52.480;13.348;2024-03-23T03:48:39;19.10;;;3.67;;
7263;SDS011;3673;52.480;13.348;2024-03-23T03:51:06;13.57;;;3.25;;
7263;SDS011;3673;52.480;13.348;2024-03-23T03:53:32;15.98;;;3.47;;
7263;SDS011;3673;52.480;13.348;2024-03-23T03:56:00;15.45;;;3.15;;
7263;SDS011;3673;52.480;13.348;2024-03-23T03:58:27;17.40;;;3.13;;
7263;SDS011;3673;52.480;13.348;2024-03-23T04:00:53;10.48;;;2.45;;
7263;SDS011;3673;52.480;13.348;2024-03-23T04:03:19;15.50;;;3.50;;
7263;SDS011;3673;52.480;13.348;2024-03-23T04:05:51;13.43;;;3.20;;
7263;SDS011;3673;52.480;13.348;2024-03-23T04:08:17;9.13;;;2.70;;
7263;SDS011;3673;52.480;13.348;2024-03-23T04:10:44;10.23;;;3.67;;
7263;SDS011;3673;52.480;13.348;2024-03-23T04:13:10;18.10;;;3.38;;
7263;SDS011;3673;52.480;13.348;2024-03-23T04:15:37;12.77;;;4.15;;
7263;SDS011;3673;52.480;13.348;2024-03-23T04:18:03;21.08;;;7.10;;
7263;SDS011;3673;52.480;13.348;2024-03-23T04:20:30;24.50;;;7.50;;
7263;SDS011;3673;52.480;13.348;2024-03-23T04:22:58;15.73;;;3.80;;
7263;SDS011;3673;52.480;13.348;2024-03-23T04:25:25;13.43;;;3.22;;
7263;SDS011;3673;52.480;13.348;2024-03-23T04:27:51;14.10;;;3.33;;
7263;SDS011;3673;52.480;13.348;2024-03-23T04:30:18;8.43;;;3.03;;
7263;SDS011;3673;52.480;13.348;2024-03-23T04:32:44;14.40;;;3.75;;
7263;SDS011;3673;52.480;13.348;2024-03-23T04:35:11;9.82;;;2.42;;
7263;SDS011;3673;52.480;13.348;2024-03-23T04:37:38;14.10;;;3.15;;
7263;SDS011;3673;52.480;13.348;2024-03-23T04:40:08;10.52;;;2.60;;
7263;SDS011;3673;52.480;13.348;2024-03-23T04:42:36;9.40;;;2.20;;
7263;SDS011;3673;52.480;13.348;2024-03-23T04:45:03;13.80;;;3.42;;
7263;SDS011;3673;52.480;13.348;2024-03-23T04:47:32;11.10;;;2.20;;
7263;SDS011;3673;52.480;13.348;2024-03-23T04:50:00;12.95;;;2.33;;
7263;SDS011;3673;52.480;13.348;2024-03-23T04:52:28;5.82;;;1.95;;
7263;SDS011;3673;52.480;13.348;2024-03-23T04:54:54;7.05;;;2.60;;
7263;SDS011;3673;52.480;13.348;2024-03-23T04:57:22;14.05;;;2.80;;
7263;SDS011;3673;52.480;13.348;2024-03-23T04:59:49;11.63;;;2.28;;
7263;SDS011;3673;52.480;13.348;2024-03-23T05:02:15;5.13;;;1.95;;
7263;SDS011;3673;52.480;13.348;2024-03-23T05:04:42;7.80;;;1.95;;
7263;SDS011;3673;52.480;13.348;2024-03-23T05:07:07;12.38;;;3.90;;
7263;SDS011;3673;52.480;13.348;2024-03-23T05:09:34;8.75;;;3.88;;
7263;SDS011;3673;52.480;13.348;2024-03-23T05:12:00;25.20;;;10.63;;
7263;SDS011;3673;52.480;13.348;2024-03-23T05:14:28;15.40;;;4.05;;
7263;SDS011;3673;52.480;13.348;2024-03-23T05:16:54;18.77;;;7.65;;
7263;SDS011;3673;52.480;13.348;2024-03-23T05:19:21;11.13;;;3.42;;
7263;SDS011;3673;52.480;13.348;2024-03-23T05:21:47;16.92;;;4.15;;
7263;SDS011;3673;52.480;13.348;2024-03-23T05:24:14;10.90;;;2.35;;
7263;SDS011;3673;52.480;13.348;2024-03-23T05:26:40;13.85;;;4.32;;
7263;SDS011;3673;52.480;13.348;2024-03-23T05:29:06;10.95;;;2.53;;
7263;SDS011;3673;52.480;13.348;2024-03-23T05:31:37;9.82;;;2.78;;
7263;SDS011;3673;52.480;13.348;2024-03-23T05:34:03;11.23;;;2.47;;
7263;SDS011;3673;52.480;13.348;2024-03-23T05:36:29;14.98;;;3.88;;
7263;SDS011;3673;52.480;13.348;2024-03-23T05:38:57;14.13;;;2.80;;
7263;SDS011;3673;52.480;13.348;2024-03-23T05:41:23;9.43;;;2.70;;
7263;SDS011;3673;52.480;13.348;2024-03-23T05:43:50;5.15;;;2.40;;
7263;SDS011;3673;52.480;13.348;2024-03-23T05:46:15;8.00;;;2.17;;
7263;SDS011;3673;52.480;13.348;2024-03-23T05:48:44;8.70;;;1.83;;
7263;SDS011;3673;52.480;13.348;2024-03-23T05:51:10;4.43;;;1.48;;
7263;SDS011;3673;52.480;13.348;2024-03-23T05:53:37;7.03;;;1.95;;
7263;SDS011;3673;52.480;13.348;2024-03-23T05:56:03;8.45;;;2.28;;
7263;SDS011;3673;52.480;13.348;2024-03-23T05:58:31;10.30;;;2.50;;
7263;SDS011;3673;52.480;13.348;2024-03-23T06:00:58;8.57;;;2.08;;
7263;SDS011;3673;52.480;13.348;2024-03-23T06:03:26;6.82;;;1.95;;
7263;SDS011;3673;52.480;13.348;2024-03-23T06:05:53;8.38;;;2.40;;
7263;SDS011;3673;52.480;13.348;2024-03-23T06:08:20;10.05;;;2.13;;
7263;SDS011;3673;52.480;13.348;2024-03-23T06:10:46;8.45;;;1.95;;
7263;SDS011;3673;52.480;13.348;2024-03-23T06:13:13;9.93;;;1.88;;
7263;SDS011;3673;52.480;13.348;2024-03-23T06:15:39;6.50;;;2.00;;
7263;SDS011;3673;52.480;13.348;2024-03-23T06:18:06;9.13;;;2.13;;
7263;SDS011;3673;52.480;13.348;2024-03-23T06:20:32;16.20;;;2.90;;
7263;SDS011;3673;52.480;13.348;2024-03-23T06:23:01;12.90;;;2.88;;
7263;SDS011;3673;52.480;13.348;2024-03-23T06:25:28;16.17;;;3.03;;
7263;SDS011;3673;52.480;13.348;2024-03-23T06:27:55;13.52;;;2.75;;
7263;SDS011;3673;52.480;13.348;2024-03-23T06:30:21;7.00;;;1.83;;
7263;SDS011;3673;52.480;13.348;2024-03-23T06:32:48;9.93;;;1.75;;
7263;SDS011;3673;52.480;13.348;2024-03-23T06:35:13;7.35;;;1.77;;
7263;SDS011;3673;52.480;13.348;2024-03-23T06:37:41;9.32;;;2.22;;
7263;SDS011;3673;52.480;13.348;2024-03-23T06:40:08;9.65;;;2.38;;
7263;SDS011;3673;52.480;13.348;2024-03-23T06:42:36;5.25;;;1.83;;
7263;SDS011;3673;52.480;13.348;2024-03-23T06:45:02;5.40;;;1.80;;
7263;SDS011;3673;52.480;13.348;2024-03-23T06:47:29;9.55;;;2.00;;
7263;SDS011;3673;52.480;13.348;2024-03-23T06:49:55;5.97;;;2.33;;
7263;SDS011;3673;52.480;13.348;2024-03-23T06:52:22;10.02;;;2.45;;
7263;SDS011;3673;52.480;13.348;2024-03-23T06:54:48;7.53;;;2.55;;
7263;SDS011;3673;52.480;13.348;2024-03-23T06:57:16;9.68;;;1.70;;
7263;SDS011;3673;52.480;13.348;2024-03-23T06:59:41;4.90;;;1.83;;
7263;SDS011;3673;52.480;13.348;2024-03-23T07:02:09;8.73;;;1.55;;
7263;SDS011;3673;52.480;13.348;2024-03-23T07:04:34;7.47;;;1.40;;
7263;SDS011;3673;52.480;13.348;2024-03-23T07:07:02;9.38;;;2.22;;
7263;SDS011;3673;52.480;13.348;2024-03-23T07:09:28;6.63;;;2.30;;
7263;SDS011;3673;52.480;13.348;2024-03-23T07:11:55;7.50;;;1.60;;
7263;SDS011;3673;52.480;13.348;2024-03-23T07:14:23;4.20;;;1.92;;
7263;SDS011;3673;52.480;13.348;2024-03-23T07:16:50;6.63;;;1.65;;
7263;SDS011;3673;52.480;13.348;2024-03-23T07:19:16;10.00;;;2.63;;
7263;SDS011;3673;52.480;13.348;2024-03-23T07:21:44;7.68;;;2.33;;
7263;SDS011;3673;52.480;13.348;2024-03-23T07:24:10;8.52;;;1.80;;
7263;SDS011;3673;52.480;13.348;2024-03-23T07:26:37;6.28;;;2.00;;
7263;SDS011;3673;52.480;13.348;2024-03-23T07:29:03;11.45;;;2.75;;
7263;SDS011;3673;52.480;13.348;2024-03-23T07:31:31;5.43;;;2.45;;
7263;SDS011;3673;52.480;13.348;2024-03-23T07:33:57;5.32;;;2.03;;
7263;SDS011;3673;52.480;13.348;2024-03-23T07:36:24;5.38;;;1.90;;
7263;SDS011;3673;52.480;13.348;2024-03-23T07:38:50;16.27;;;9.25;;
7263;SDS011;3673;52.480;13.348;2024-03-23T07:41:18;7.15;;;3.35;;
7263;SDS011;3673;52.480;13.348;2024-03-23T07:43:46;12.65;;;3.45;;
7263;SDS011;3673;52.480;13.348;2024-03-23T07:46:14;3.40;;;1.70;;
7263;SDS011;3673;52.480;13.348;2024-03-23T07:48:42;9.02;;;2.45;;
7263;SDS011;3673;52.480;13.348;2024-03-23T07:51:10;6.18;;;1.90;;
7263;SDS011;3673;52.480;13.348;2024-03-23T07:53:43;8.57;;;1.75;;
7263;SDS011;3673;52.480;13.348;2024-03-23T07:56:11;4.85;;;1.63;;
7263;SDS011;3673;52.480;13.348;2024-03-23T07:58:37;4.25;;;1.52;;
7263;SDS011;3673;52.480;13.348;2024-03-23T08:01:05;6.22;;;1.50;;
7263;SDS011;3673;52.480;13.348;2024-03-23T08:03:33;6.97;;;2.28;;
7263;SDS011;3673;52.480;13.348;2024-03-23T08:06:07;10.70;;;2.60;;
7263;SDS011;3673;52.480;13.348;2024-03-23T08:08:34;7.20;;;2.33;;
7263;SDS011;3673;52.480;13.348;2024-03-23T08:11:01;7.78;;;1.92;;
7263;SDS011;3673;52.480;13.348;2024-03-23T08:13:28;9.85;;;2.55;;
7263;SDS011;3673;52.480;13.348;2024-03-23T08:15:56;6.60;;;1.83;;
7263;SDS011;3673;52.480;13.348;2024-03-23T08:18:22;8.05;;;2.08;;
7263;SDS011;3673;52.480;13.348;2024-03-23T08:20:55;8.85;;;2.15;;
7263;SDS011;3673;52.480;13.348;2024-03-23T08:23:23;4.18;;;1.27;;
7263;SDS011;3673;52.480;13.348;2024-03-23T08:25:51;6.63;;;2.10;;
7263;SDS011;3673;52.480;13.348;2024-03-23T08:28:16;9.63;;;2.28;;
7263;SDS011;3673;52.480;13.348;2024-03-23T08:30:43;6.05;;;1.88;;
7263;SDS011;3673;52.480;13.348;2024-03-23T08:33:09;6.90;;;1.75;;
7263;SDS011;3673;52.480;13.348;2024-03-23T08:35:36;8.23;;;2.42;;
7263;SDS011;3673;52.480;13.348;2024-03-23T08:38:02;7.70;;;1.98;;
7263;SDS011;3673;52.480;13.348;2024-03-23T08:40:30;5.90;;;2.30;;
7263;SDS011;3673;52.480;13.348;2024-03-23T08:42:56;5.32;;;1.90;;
7263;SDS011;3673;52.480;13.348;2024-03-23T08:45:23;10.18;;;2.50;;
7263;SDS011;3673;52.480;13.348;2024-03-23T08:47:50;7.45;;;2.60;;
7263;SDS011;3673;52.480;13.348;2024-03-23T08:50:17;7.43;;;1.98;;
7263;SDS011;3673;52.480;13.348;2024-03-23T08:52:44;5.97;;;2.33;;
7263;SDS011;3673;52.480;13.348;2024-03-23T08:55:10;6.05;;;2.05;;
7263;SDS011;3673;52.480;13.348;2024-03-23T08:57:38;9.40;;;2.22;;
7263;SDS011;3673;52.480;13.348;2024-03-23T09:00:05;5.88;;;1.95;;
7263;SDS011;3673;52.480;13.348;2024-03-23T09:02:33;10.93;;;2.38;;
7263;SDS011;3673;52.480;13.348;2024-03-23T09:05:00;8.07;;;2.20;;
7263;SDS011;3673;52.480;13.348;2024-03-23T09:07:29;7.35;;;2.10;;
7263;SDS011;3673;52.480;13.348;2024-03-23T09:09:56;5.78;;;1.52;;
7263;SDS011;3673;52.480;13.348;2024-03-23T09:12:22;5.70;;;1.92;;
7263;SDS011;3673;52.480;13.348;2024-03-23T09:14:51;5.97;;;1.80;;
7263;SDS011;3673;52.480;13.348;2024-03-23T09:17:18;4.95;;;1.60;;
7263;SDS011;3673;52.480;13.348;2024-03-23T09:19:45;4.43;;;1.75;;
7263;SDS011;3673;52.480;13.348;2024-03-23T09:22:10;7.28;;;2.47;;
7263;SDS011;3673;52.480;13.348;2024-03-23T09:24:38;8.57;;;1.60;;
7263;SDS011;3673;52.480;13.348;2024-03-23T09:27:04;6.00;;;2.00;;
7263;SDS011;3673;52.480;13.348;2024-03-23T09:29:31;4.10;;;1.65;;
7263;SDS011;3673;52.480;13.348;2024-03-23T09:31:58;9.05;;;1.83;;
7263;SDS011;3673;52.480;13.348;2024-03-23T09:34:25;8.45;;;1.52;;
7263;SDS011;3673;52.480;13.348;2024-03-23T09:36:51;7.97;;;1.83;;
7263;SDS011;3673;52.480;13.348;2024-03-23T09:39:18;8.80;;;1.90;;
7263;SDS011;3673;52.480;13.348;2024-03-23T09:44:11;5.70;;;1.88;;
7263;SDS011;3673;52.480;13.348;2024-03-23T09:46:37;8.25;;;1.88;;
7263;SDS011;3673;52.480;13.348;2024-03-23T09:49:06;5.97;;;1.67;;
7263;SDS011;3673;52.480;13.348;2024-03-23T09:51:34;8.13;;;2.20;;
7263;SDS011;3673;52.480;13.348;2024-03-23T09:54:02;10.40;;;1.90;;
7263;SDS011;3673;52.480;13.348;2024-03-23T09:56:28;9.80;;;1.92;;
7263;SDS011;3673;52.480;13.348;2024-03-23T09:59:00;5.57;;;1.38;;
7263;SDS011;3673;52.480;13.348;2024-03-23T10:01:27;12.40;;;2.90;;
7263;SDS011;3673;52.480;13.348;2024-03-23T10:03:55;9.00;;;2.35;;
7263;SDS011;3673;52.480;13.348;2024-03-23T10:06:23;11.52;;;3.72;;
7263;SDS011;3673;52.480;13.348;2024-03-23T10:08:51;8.77;;;2.10;;
7263;SDS011;3673;52.480;13.348;2024-03-23T10:11:18;5.90;;;1.50;;
7263;SDS011;3673;52.480;13.348;2024-03-23T10:13:46;6.80;;;2.38;;
7263;SDS011;3673;52.480;13.348;2024-03-23T10:18:46;7.90;;;1.80;;
7263;SDS011;3673;52.480;13.348;2024-03-23T10:21:14;7.15;;;2.10;;
7263;SDS011;3673;52.480;13.348;2024-03-23T10:23:43;7.57;;;2.75;;
7263;SDS011;3673;52.480;13.348;2024-03-23T10:26:13;5.40;;;1.95;;
7263;SDS011;3673;52.480;13.348;2024-03-23T10:28:56;8.65;;;2.42;;
7263;SDS011;3673;52.480;13.348;2024-03-23T10:31:25;10.23;;;2.63;;
7263;SDS011;3673;52.480;13.348;2024-03-23T10:33:52;5.72;;;2.38;;
7263;SDS011;3673;52.480;13.348;2024-03-23T10:36:19;12.90;;;2.42;;
7263;SDS011;3673;52.480;13.348;2024-03-23T10:38:49;7.22;;;2.78;;
7263;SDS011;3673;52.480;13.348;2024-03-23T10:41:16;8.30;;;2.90;;
7263;SDS011;3673;52.480;13.348;2024-03-23T10:43:44;8.20;;;2.03;;
7263;SDS011;3673;52.480;13.348;2024-03-23T10:46:12;11.45;;;2.22;;
7263;SDS011;3673;52.480;13.348;2024-03-23T10:48:38;5.68;;;1.75;;
7263;SDS011;3673;52.480;13.348;2024-03-23T10:53:33;8.48;;;1.90;;
7263;SDS011;3673;52.480;13.348;2024-03-23T10:56:01;9.27;;;1.98;;
7263;SDS011;3673;52.480;13.348;2024-03-23T10:58:30;13.63;;;2.17;;
7263;SDS011;3673;52.480;13.348;2024-03-23T11:00:58;7.75;;;2.95;;
7263;SDS011;3673;52.480;13.348;2024-03-23T11:03:32;13.02;;;2.63;;
7263;SDS011;3673;52.480;13.348;2024-03-23T11:05:59;11.60;;;2.75;;
7263;SDS011;3673;52.480;13.348;2024-03-23T11:08:31;8.77;;;2.40;;
7263;SDS011;3673;52.480;13.348;2024-03-23T11:13:46;9.63;;;5.53;;
7263;SDS011;3673;52.480;13.348;2024-03-23T11:16:14;8.13;;;3.30;;
7263;SDS011;3673;52.480;13.348;2024-03-23T11:18:42;9.60;;;3.10;;
7263;SDS011;3673;52.480;13.348;2024-03-23T11:21:08;8.98;;;1.83;;
7263;SDS011;3673;52.480;13.348;2024-03-23T11:23:35;9.85;;;2.30;;
7263;SDS011;3673;52.480;13.348;2024-03-23T11:26:01;11.32;;;5.57;;
7263;SDS011;3673;52.480;13.348;2024-03-23T11:28:30;9.95;;;2.67;;
7263;SDS011;3673;52.480;13.348;2024-03-23T11:30:56;11.40;;;5.38;;
7263;SDS011;3673;52.480;13.348;2024-03-23T11:33:23;13.70;;;8.25;;
7263;SDS011;3673;52.480;13.348;2024-03-23T11:35:48;11.13;;;4.05;;
7263;SDS011;3673;52.480;13.348;2024-03-23T11:38:16;11.60;;;2.65;;
7263;SDS011;3673;52.480;13.348;2024-03-23T11:40:44;7.70;;;2.13;;
7263;SDS011;3673;52.480;13.348;2024-03-23T11:43:12;5.97;;;2.53;;
7263;SDS011;3673;52.480;13.348;2024-03-23T11:45:42;9.15;;;2.63;;
7263;SDS011;3673;52.480;13.348;2024-03-23T11:48:12;10.48;;;2.45;;
7263;SDS011;3673;52.480;13.348;2024-03-23T11:50:41;7.90;;;3.30;;
7263;SDS011;3673;52.480;13.348;2024-03-23T11:53:19;10.13;;;2.80;;
7263;SDS011;3673;52.480;13.348;2024-03-23T11:55:48;11.70;;;2.88;;
7263;SDS011;3673;52.480;13.348;2024-03-23T11:58:17;10.23;;;3.55;;
7263;SDS011;3673;52.480;13.348;2024-03-23T12:00:50;6.95;;;2.90;;
7263;SDS011;3673;52.480;13.348;2024-03-23T12:03:19;15.35;;;5.43;;
7263;SDS011;3673;52.480;13.348;2024-03-23T12:05:47;10.20;;;5.47;;
7263;SDS011;3673;52.480;13.348;2024-03-23T12:08:18;4.20;;;2.40;;
7263;SDS011;3673;52.480;13.348;2024-03-23T12:10:47;8.20;;;2.42;;
7263;SDS011;3673;52.480;13.348;2024-03-23T12:13:20;6.03;;;1.45;;
7263;SDS011;3673;52.480;13.348;2024-03-23T12:15:47;12.50;;;3.45;;
7263;SDS011;3673;52.480;13.348;2024-03-23T12:18:17;15.88;;;6.78;;
7263;SDS011;3673;52.480;13.348;2024-03-23T12:20:48;11.20;;;2.72;;
7263;SDS011;3673;52.480;13.348;2024-03-23T12:23:15;8.45;;;2.75;;
7263;SDS011;3673;52.480;13.348;2024-03-23T12:25:41;5.28;;;1.80;;
7263;SDS011;3673;52.480;13.348;2024-03-23T12:28:08;11.43;;;2.40;;
7263;SDS011;3673;52.480;13.348;2024-03-23T12:30:34;9.27;;;2.25;;
7263;SDS011;3673;52.480;13.348;2024-03-23T12:33:03;6.03;;;2.17;;
7263;SDS011;3673;52.480;13.348;2024-03-23T12:35:30;13.65;;;2.55;;
7263;SDS011;3673;52.480;13.348;2024-03-23T12:37:58;13.02;;;3.75;;
7263;SDS011;3673;52.480;13.348;2024-03-23T12:40:24;10.38;;;2.15;;
7263;SDS011;3673;52.480;13.348;2024-03-23T12:42:52;6.47;;;1.38;;
7263;SDS011;3673;52.480;13.348;2024-03-23T12:45:18;9.05;;;1.73;;
7263;SDS011;3673;52.480;13.348;2024-03-23T12:47:44;4.03;;;1.05;;
7263;SDS011;3673;52.480;13.348;2024-03-23T12:50:12;5.10;;;1.08;;
7263;SDS011;3673;52.480;13.348;2024-03-23T12:52:38;5.38;;;1.33;;
7263;SDS011;3673;52.480;13.348;2024-03-23T12:55:04;3.08;;;1.45;;
7263;SDS011;3673;52.480;13.348;2024-03-23T12:57:32;9.85;;;2.00;;
7263;SDS011;3673;52.480;13.348;2024-03-23T12:59:58;20.42;;;9.50;;
7263;SDS011;3673;52.480;13.348;2024-03-23T13:02:25;4.20;;;1.65;;
7263;SDS011;3673;52.480;13.348;2024-03-23T13:04:51;8.13;;;2.05;;
7263;SDS011;3673;52.480;13.348;2024-03-23T13:07:21;13.15;;;1.92;;
7263;SDS011;3673;52.480;13.348;2024-03-23T13:09:49;9.50;;;2.50;;
7263;SDS011;3673;52.480;13.348;2024-03-23T13:12:17;8.85;;;2.08;;
7263;SDS011;3673;52.480;13.348;2024-03-23T13:14:43;6.00;;;1.80;;
7263;SDS011;3673;52.480;13.348;2024-03-23T13:17:10;7.28;;;2.17;;
7263;SDS011;3673;52.480;13.348;2024-03-23T13:19:36;8.73;;;2.08;;
7263;SDS011;3673;52.480;13.348;2024-03-23T13:22:03;8.30;;;2.50;;
7263;SDS011;3673;52.480;13.348;2024-03-23T13:24:31;8.35;;;2.35;;
7263;SDS011;3673;52.480;13.348;2024-03-23T13:26:58;8.80;;;2.13;;
7263;SDS011;3673;52.480;13.348;2024-03-23T13:29:24;10.02;;;3.95;;
7263;SDS011;3673;52.480;13.348;2024-03-23T13:31:51;7.53;;;2.70;;
7263;SDS011;3673;52.480;13.348;2024-03-23T13:36:44;6.95;;;1.95;;
7263;SDS011;3673;52.480;13.348;2024-03-23T13:39:11;7.07;;;1.90;;
7263;SDS011;3673;52.480;13.348;2024-03-23T13:41:42;4.90;;;1.83;;
7263;SDS011;3673;52.480;13.348;2024-03-23T13:44:09;9.50;;;2.10;;
7263;SDS011;3673;52.480;13.348;2024-03-23T13:46:37;11.73;;;3.88;;
7263;SDS011;3673;52.480;13.348;2024-03-23T13:49:04;7.40;;;2.40;;
7263;SDS011;3673;52.480;13.348;2024-03-23T13:51:31;6.45;;;2.05;;
7263;SDS011;3673;52.480;13.348;2024-03-23T13:56:26;6.32;;;2.10;;
7263;SDS011;3673;52.480;13.348;2024-03-23T13:58:55;8.88;;;2.90;;
7263;SDS011;3673;52.480;13.348;2024-03-23T14:01:23;8.70;;;2.58;;
7263;SDS011;3673;52.480;13.348;2024-03-23T14:06:16;9.15;;;2.35;;
7263;SDS011;3673;52.480;13.348;2024-03-23T14:08:41;9.52;;;2.83;;
7263;SDS011;3673;52.480;13.348;2024-03-23T14:11:08;9.50;;;2.58;;
7263;SDS011;3673;52.480;13.348;2024-03-23T14:13:35;11.13;;;3.33;;
7263;SDS011;3673;52.480;13.348;2024-03-23T14:16:04;9.35;;;2.55;;
7263;SDS011;3673;52.480;13.348;2024-03-23T14:18:30;9.88;;;2.40;;
7263;SDS011;3673;52.480;13.348;2024-03-23T14:20:57;8.38;;;2.60;;
7263;SDS011;3673;52.480;13.348;2024-03-23T14:23:24;13.25;;;2.35;;
7263;SDS011;3673;52.480;13.348;2024-03-23T14:25:54;4.93;;;2.03;;
7263;SDS011;3673;52.480;13.348;2024-03-23T14:28:21;8.15;;;2.20;;
7263;SDS011;3673;52.480;13.348;2024-03-23T14:30:48;7.70;;;2.60;;
7263;SDS011;3673;52.480;13.348;2024-03-23T14:33:15;5.85;;;2.17;;
7263;SDS011;3673;52.480;13.348;2024-03-23T14:35:42;8.95;;;2.92;;
7263;SDS011;3673;52.480;13.348;2024-03-23T14:38:09;12.60;;;2.92;;
7263;SDS011;3673;52.480;13.348;2024-03-23T14:40:35;9.35;;;2.67;;
7263;SDS011;3673;52.480;13.348;2024-03-23T14:43:01;10.02;;;3.20;;
7263;SDS011;3673;52.480;13.348;2024-03-23T14:45:28;9.25;;;2.20;;
7263;SDS011;3673;52.480;13.348;2024-03-23T14:47:54;8.68;;;2.38;;
7263;SDS011;3673;52.480;13.348;2024-03-23T14:50:24;8.57;;;2.22;;
7263;SDS011;3673;52.480;13.348;2024-03-23T14:52:50;9.75;;;2.42;;
7263;SDS011;3673;52.480;13.348;2024-03-23T14:55:17;9.73;;;2.25;;
7263;SDS011;3673;52.480;13.348;2024-03-23T14:57:42;11.00;;;2.70;;
7263;SDS011;3673;52.480;13.348;2024-03-23T15:00:09;6.18;;;1.90;;
7263;SDS011;3673;52.480;13.348;2024-03-23T15:02:37;5.50;;;2.03;;
7263;SDS011;3673;52.480;13.348;2024-03-23T15:05:04;4.55;;;1.80;;
7263;SDS011;3673;52.480;13.348;2024-03-23T15:07:35;5.18;;;2.03;;
7263;SDS011;3673;52.480;13.348;2024-03-23T15:10:03;6.45;;;2.22;;
7263;SDS011;3673;52.480;13.348;2024-03-23T15:12:29;7.97;;;2.00;;
7263;SDS011;3673;52.480;13.348;2024-03-23T15:14:58;3.55;;;1.77;;
7263;SDS011;3673;52.480;13.348;2024-03-23T15:17:23;2.75;;;1.52;;
7263;SDS011;3673;52.480;13.348;2024-03-23T15:19:50;6.65;;;1.95;;
7263;SDS011;3673;52.480;13.348;2024-03-23T15:22:16;6.50;;;2.08;;
7263;SDS011;3673;52.480;13.348;2024-03-23T15:24:44;6.25;;;2.00;;
7263;SDS011;3673;52.480;13.348;2024-03-23T15:27:11;7.05;;;1.85;;
7263;SDS011;3673;52.480;13.348;2024-03-23T15:29:36;4.20;;;2.03;;
7263;SDS011;3673;52.480;13.348;2024-03-23T15:32:03;5.55;;;1.65;;
7263;SDS011;3673;52.480;13.348;2024-03-23T15:34:30;6.28;;;1.90;;
7263;SDS011;3673;52.480;13.348;2024-03-23T15:36:56;6.07;;;2.30;;
7263;SDS011;3673;52.480;13.348;2024-03-23T15:39:22;4.68;;;2.35;;
7263;SDS011;3673;52.480;13.348;2024-03-23T15:41:50;5.53;;;2.17;;
7263;SDS011;3673;52.480;13.348;2024-03-23T15:44:16;14.07;;;2.30;;
7263;SDS011;3673;52.480;13.348;2024-03-23T15:46:43;3.63;;;1.60;;
7263;SDS011;3673;52.480;13.348;2024-03-23T15:49:09;11.73;;;4.63;;
7263;SDS011;3673;52.480;13.348;2024-03-23T15:51:35;10.65;;;3.78;;
7263;SDS011;3673;52.480;13.348;2024-03-23T15:54:03;6.30;;;1.98;;
7263;SDS011;3673;52.480;13.348;2024-03-23T15:56:31;6.07;;;2.40;;
7263;SDS011;3673;52.480;13.348;2024-03-23T15:58:58;4.00;;;1.60;;
7263;SDS011;3673;52.480;13.348;2024-03-23T16:01:30;7.72;;;1.63;;
7263;SDS011;3673;52.480;13.348;2024-03-23T16:03:58;7.13;;;2.20;;
7263;SDS011;3673;52.480;13.348;2024-03-23T16:06:25;6.50;;;2.08;;
7263;SDS011;3673;52.480;13.348;2024-03-23T16:08:51;6.13;;;1.45;;
7263;SDS011;3673;52.480;13.348;2024-03-23T16:11:18;6.93;;;2.13;;